sensor_id;sensor_type;location;lat;lon;timestamp;P1;durP1;ratioP1;P2;durP2;ratioP2
21862;SDS011;11096;51.338;12.524;2022-07-23T00:01:21;10.05;;;6.35;;
21862;SDS011;11096;51.338;12.524;2022-07-23T00:03:47;8.40;;;6.75;;
21862;SDS011;11096;51.338;12.524;2022-07-23T00:06:12;7.70;;;6.45;;
21862;SDS011;11096;51.338;12.524;2022-07-23T00:08:38;7.97;;;6.38;;
21862;SDS011;11096;51.338;12.524;2022-07-23T00:11:03;9.30;;;6.57;;
21862;SDS011;11096;51.338;12.524;2022-07-23T00:13:28;7.65;;;6.28;;
21862;SDS011;11096;51.338;12.524;2022-07-23T00:15:54;8.57;;;6.20;;
21862;SDS011;11096;51.338;12.524;2022-07-23T00:18:20;7.85;;;6.50;;
21862;SDS011;11096;51.338;12.524;2022-07-23T00:20:45;8.68;;;6.47;;
21862;SDS011;11096;51.338;12.524;2022-07-23T00:23:11;7.38;;;6.40;;
21862;SDS011;11096;51.338;12.524;2022-07-23T00:25:36;8.45;;;6.90;;
21862;SDS011;11096;51.338;12.524;2022-07-23T00:28:02;7.22;;;6.45;;
21862;SDS011;11096;51.338;12.524;2022-07-23T00:30:29;8.13;;;6.03;;
21862;SDS011;11096;51.338;12.524;2022-07-23T00:32:56;9.68;;;6.90;;
21862;SDS011;11096;51.338;12.524;2022-07-23T00:35:29;7.88;;;6.60;;
21862;SDS011;11096;51.338;12.524;2022-07-23T00:37:57;9.90;;;6.57;;
21862;SDS011;11096;51.338;12.524;2022-07-23T00:40:23;7.82;;;6.60;;
21862;SDS011;11096;51.338;12.524;2022-07-23T00:42:49;9.55;;;6.03;;
21862;SDS011;11096;51.338;12.524;2022-07-23T00:45:15;9.60;;;6.88;;
21862;SDS011;11096;51.338;12.524;2022-07-23T00:47:40;9.50;;;6.80;;
21862;SDS011;11096;51.338;12.524;2022-07-23T00:50:06;7.97;;;6.72;;
21862;SDS011;11096;51.338;12.524;2022-07-23T00:52:33;9.57;;;7.50;;
21862;SDS011;11096;51.338;12.524;2022-07-23T00:55:00;10.63;;;6.28;;
21862;SDS011;11096;51.338;12.524;2022-07-23T00:57:26;10.68;;;6.88;;
21862;SDS011;11096;51.338;12.524;2022-07-23T00:59:52;11.80;;;6.95;;
21862;SDS011;11096;51.338;12.524;2022-07-23T01:02:17;8.45;;;6.95;;
21862;SDS011;11096;51.338;12.524;2022-07-23T01:04:42;9.50;;;7.32;;
21862;SDS011;11096;51.338;12.524;2022-07-23T01:07:08;11.52;;;7.10;;
21862;SDS011;11096;51.338;12.524;2022-07-23T01:09:33;10.68;;;6.50;;
21862;SDS011;11096;51.338;12.524;2022-07-23T01:11:59;7.97;;;6.57;;
21862;SDS011;11096;51.338;12.524;2022-07-23T01:14:25;8.02;;;6.68;;
21862;SDS011;11096;51.338;12.524;2022-07-23T01:16:50;8.82;;;7.25;;
21862;SDS011;11096;51.338;12.524;2022-07-23T01:19:16;12.20;;;7.38;;
21862;SDS011;11096;51.338;12.524;2022-07-23T01:21:51;8.60;;;6.38;;
21862;SDS011;11096;51.338;12.524;2022-07-23T01:24:18;7.05;;;6.20;;
21862;SDS011;11096;51.338;12.524;2022-07-23T01:26:47;10.25;;;7.40;;
21862;SDS011;11096;51.338;12.524;2022-07-23T01:29:13;17.77;;;7.07;;
21862;SDS011;11096;51.338;12.524;2022-07-23T01:31:39;11.43;;;7.25;;
21862;SDS011;11096;51.338;12.524;2022-07-23T01:34:05;9.02;;;6.68;;
21862;SDS011;11096;51.338;12.524;2022-07-23T01:36:32;8.10;;;7.28;;
21862;SDS011;11096;51.338;12.524;2022-07-23T01:38:58;10.73;;;7.32;;
21862;SDS011;11096;51.338;12.524;2022-07-23T01:41:23;9.13;;;6.72;;
21862;SDS011;11096;51.338;12.524;2022-07-23T01:43:48;9.98;;;7.32;;
21862;SDS011;11096;51.338;12.524;2022-07-23T01:46:14;8.38;;;7.10;;
21862;SDS011;11096;51.338;12.524;2022-07-23T01:48:39;11.93;;;7.57;;
21862;SDS011;11096;51.338;12.524;2022-07-23T01:51:05;10.70;;;7.75;;
21862;SDS011;11096;51.338;12.524;2022-07-23T01:53:30;9.50;;;7.00;;
21862;SDS011;11096;51.338;12.524;2022-07-23T01:55:56;9.57;;;6.55;;
21862;SDS011;11096;51.338;12.524;2022-07-23T01:58:22;9.55;;;6.80;;
21862;SDS011;11096;51.338;12.524;2022-07-23T02:00:48;11.05;;;6.78;;
21862;SDS011;11096;51.338;12.524;2022-07-23T02:03:13;13.05;;;7.60;;
21862;SDS011;11096;51.338;12.524;2022-07-23T02:05:38;12.20;;;6.95;;
21862;SDS011;11096;51.338;12.524;2022-07-23T02:08:04;11.13;;;7.47;;
21862;SDS011;11096;51.338;12.524;2022-07-23T02:10:30;11.57;;;8.10;;
21862;SDS011;11096;51.338;12.524;2022-07-23T02:12:55;8.82;;;7.57;;
21862;SDS011;11096;51.338;12.524;2022-07-23T02:15:20;8.57;;;7.22;;
21862;SDS011;11096;51.338;12.524;2022-07-23T02:17:46;12.85;;;7.82;;
21862;SDS011;11096;51.338;12.524;2022-07-23T02:20:11;10.13;;;7.38;;
21862;SDS011;11096;51.338;12.524;2022-07-23T02:22:37;7.80;;;7.00;;
21862;SDS011;11096;51.338;12.524;2022-07-23T02:25:04;10.30;;;7.13;;
21862;SDS011;11096;51.338;12.524;2022-07-23T02:27:30;10.18;;;7.88;;
21862;SDS011;11096;51.338;12.524;2022-07-23T02:29:56;13.57;;;8.48;;
21862;SDS011;11096;51.338;12.524;2022-07-23T02:32:23;12.25;;;7.28;;
21862;SDS011;11096;51.338;12.524;2022-07-23T02:34:49;10.43;;;7.90;;
21862;SDS011;11096;51.338;12.524;2022-07-23T02:37:14;11.68;;;7.82;;
21862;SDS011;11096;51.338;12.524;2022-07-23T02:39:40;10.80;;;7.93;;
21862;SDS011;11096;51.338;12.524;2022-07-23T02:42:05;8.20;;;7.03;;
21862;SDS011;11096;51.338;12.524;2022-07-23T02:44:30;9.10;;;7.55;;
21862;SDS011;11096;51.338;12.524;2022-07-23T02:46:56;8.43;;;7.25;;
21862;SDS011;11096;51.338;12.524;2022-07-23T02:49:22;12.48;;;7.32;;
21862;SDS011;11096;51.338;12.524;2022-07-23T02:51:47;9.43;;;7.28;;
21862;SDS011;11096;51.338;12.524;2022-07-23T02:54:12;9.32;;;7.50;;
21862;SDS011;11096;51.338;12.524;2022-07-23T02:56:38;12.40;;;7.85;;
21862;SDS011;11096;51.338;12.524;2022-07-23T02:59:03;10.88;;;7.95;;
21862;SDS011;11096;51.338;12.524;2022-07-23T03:01:29;9.32;;;7.82;;
21862;SDS011;11096;51.338;12.524;2022-07-23T03:03:54;9.45;;;7.60;;
21862;SDS011;11096;51.338;12.524;2022-07-23T03:06:19;11.43;;;8.32;;
21862;SDS011;11096;51.338;12.524;2022-07-23T03:08:45;9.02;;;7.95;;
21862;SDS011;11096;51.338;12.524;2022-07-23T03:11:10;9.75;;;7.85;;
21862;SDS011;11096;51.338;12.524;2022-07-23T03:13:39;11.40;;;8.13;;
21862;SDS011;11096;51.338;12.524;2022-07-23T03:16:05;9.35;;;7.80;;
21862;SDS011;11096;51.338;12.524;2022-07-23T03:18:32;9.90;;;7.65;;
21862;SDS011;11096;51.338;12.524;2022-07-23T03:20:57;9.68;;;7.82;;
21862;SDS011;11096;51.338;12.524;2022-07-23T03:23:23;11.05;;;8.95;;
21862;SDS011;11096;51.338;12.524;2022-07-23T03:25:48;11.00;;;8.40;;
21862;SDS011;11096;51.338;12.524;2022-07-23T03:28:14;11.00;;;8.80;;
21862;SDS011;11096;51.338;12.524;2022-07-23T03:30:41;14.02;;;8.32;;
21862;SDS011;11096;51.338;12.524;2022-07-23T03:33:07;12.50;;;9.00;;
21862;SDS011;11096;51.338;12.524;2022-07-23T03:35:32;15.05;;;8.95;;
21862;SDS011;11096;51.338;12.524;2022-07-23T03:37:57;10.88;;;9.10;;
21862;SDS011;11096;51.338;12.524;2022-07-23T03:40:23;12.80;;;9.25;;
21862;SDS011;11096;51.338;12.524;2022-07-23T03:42:48;12.20;;;8.88;;
21862;SDS011;11096;51.338;12.524;2022-07-23T03:45:13;10.70;;;8.88;;
21862;SDS011;11096;51.338;12.524;2022-07-23T03:47:39;13.05;;;9.07;;
21862;SDS011;11096;51.338;12.524;2022-07-23T03:50:04;11.80;;;8.43;;
21862;SDS011;11096;51.338;12.524;2022-07-23T03:52:30;11.93;;;8.73;;
21862;SDS011;11096;51.338;12.524;2022-07-23T03:54:56;13.07;;;8.90;;
21862;SDS011;11096;51.338;12.524;2022-07-23T03:57:21;11.70;;;8.82;;
21862;SDS011;11096;51.338;12.524;2022-07-23T03:59:47;15.23;;;9.20;;
21862;SDS011;11096;51.338;12.524;2022-07-23T04:02:12;9.68;;;8.57;;
21862;SDS011;11096;51.338;12.524;2022-07-23T04:04:37;12.88;;;8.65;;
21862;SDS011;11096;51.338;12.524;2022-07-23T04:07:03;14.45;;;9.13;;
21862;SDS011;11096;51.338;12.524;2022-07-23T04:09:29;12.57;;;8.90;;
21862;SDS011;11096;51.338;12.524;2022-07-23T04:11:54;11.40;;;8.70;;
21862;SDS011;11096;51.338;12.524;2022-07-23T04:14:19;12.18;;;7.97;;
21862;SDS011;11096;51.338;12.524;2022-07-23T04:16:45;10.88;;;8.18;;
21862;SDS011;11096;51.338;12.524;2022-07-23T04:19:10;10.38;;;7.95;;
21862;SDS011;11096;51.338;12.524;2022-07-23T04:21:35;17.10;;;9.70;;
21862;SDS011;11096;51.338;12.524;2022-07-23T04:24:01;14.60;;;9.40;;
21862;SDS011;11096;51.338;12.524;2022-07-23T04:26:26;16.15;;;9.95;;
21862;SDS011;11096;51.338;12.524;2022-07-23T04:28:52;15.45;;;10.18;;
21862;SDS011;11096;51.338;12.524;2022-07-23T04:31:17;12.82;;;8.63;;
21862;SDS011;11096;51.338;12.524;2022-07-23T04:33:42;14.82;;;8.10;;
21862;SDS011;11096;51.338;12.524;2022-07-23T04:36:08;9.10;;;7.55;;
21862;SDS011;11096;51.338;12.524;2022-07-23T04:38:33;10.98;;;7.85;;
21862;SDS011;11096;51.338;12.524;2022-07-23T04:40:59;13.80;;;8.07;;
21862;SDS011;11096;51.338;12.524;2022-07-23T04:43:25;13.23;;;7.72;;
21862;SDS011;11096;51.338;12.524;2022-07-23T04:45:50;11.32;;;7.13;;
21862;SDS011;11096;51.338;12.524;2022-07-23T04:48:16;12.80;;;7.10;;
21862;SDS011;11096;51.338;12.524;2022-07-23T04:50:41;11.00;;;7.30;;
21862;SDS011;11096;51.338;12.524;2022-07-23T04:53:07;13.45;;;8.20;;
21862;SDS011;11096;51.338;12.524;2022-07-23T04:55:33;10.85;;;7.85;;
21862;SDS011;11096;51.338;12.524;2022-07-23T04:57:58;23.15;;;10.90;;
21862;SDS011;11096;51.338;12.524;2022-07-23T05:00:23;16.92;;;10.15;;
21862;SDS011;11096;51.338;12.524;2022-07-23T05:02:49;14.15;;;10.65;;
21862;SDS011;11096;51.338;12.524;2022-07-23T05:05:14;15.77;;;10.25;;
21862;SDS011;11096;51.338;12.524;2022-07-23T05:07:39;16.52;;;11.50;;
21862;SDS011;11096;51.338;12.524;2022-07-23T05:10:05;16.67;;;11.25;;
21862;SDS011;11096;51.338;12.524;2022-07-23T05:12:30;20.52;;;11.70;;
21862;SDS011;11096;51.338;12.524;2022-07-23T05:14:57;17.98;;;13.52;;
21862;SDS011;11096;51.338;12.524;2022-07-23T05:17:23;20.77;;;13.10;;
21862;SDS011;11096;51.338;12.524;2022-07-23T05:19:48;14.43;;;12.05;;
21862;SDS011;11096;51.338;12.524;2022-07-23T05:22:13;23.10;;;14.63;;
21862;SDS011;11096;51.338;12.524;2022-07-23T05:24:39;20.20;;;14.02;;
21862;SDS011;11096;51.338;12.524;2022-07-23T05:27:04;21.10;;;14.70;;
21862;SDS011;11096;51.338;12.524;2022-07-23T05:29:29;27.17;;;15.57;;
21862;SDS011;11096;51.338;12.524;2022-07-23T05:31:55;23.92;;;14.63;;
21862;SDS011;11096;51.338;12.524;2022-07-23T05:34:20;24.42;;;13.85;;
21862;SDS011;11096;51.338;12.524;2022-07-23T05:36:45;25.13;;;15.05;;
21862;SDS011;11096;51.338;12.524;2022-07-23T05:39:11;27.08;;;16.25;;
21862;SDS011;11096;51.338;12.524;2022-07-23T05:41:36;25.65;;;14.93;;
21862;SDS011;11096;51.338;12.524;2022-07-23T05:44:01;29.17;;;16.25;;
21862;SDS011;11096;51.338;12.524;2022-07-23T05:46:27;30.20;;;15.40;;
21862;SDS011;11096;51.338;12.524;2022-07-23T05:48:52;28.20;;;15.82;;
21862;SDS011;11096;51.338;12.524;2022-07-23T05:51:21;27.15;;;16.70;;
21862;SDS011;11096;51.338;12.524;2022-07-23T05:53:50;24.08;;;15.50;;
21862;SDS011;11096;51.338;12.524;2022-07-23T05:56:16;25.63;;;15.77;;
21862;SDS011;11096;51.338;12.524;2022-07-23T05:58:42;26.42;;;15.70;;
21862;SDS011;11096;51.338;12.524;2022-07-23T06:01:08;22.75;;;14.95;;
21862;SDS011;11096;51.338;12.524;2022-07-23T06:03:33;21.08;;;15.00;;
21862;SDS011;11096;51.338;12.524;2022-07-23T06:05:59;34.30;;;16.38;;
21862;SDS011;11096;51.338;12.524;2022-07-23T06:08:24;25.83;;;15.05;;
21862;SDS011;11096;51.338;12.524;2022-07-23T06:10:49;25.23;;;14.82;;
21862;SDS011;11096;51.338;12.524;2022-07-23T06:13:17;25.38;;;14.48;;
21862;SDS011;11096;51.338;12.524;2022-07-23T06:15:43;22.25;;;15.68;;
21862;SDS011;11096;51.338;12.524;2022-07-23T06:18:08;23.85;;;14.13;;
21862;SDS011;11096;51.338;12.524;2022-07-23T06:20:34;23.02;;;15.80;;
21862;SDS011;11096;51.338;12.524;2022-07-23T06:22:59;16.80;;;13.30;;
21862;SDS011;11096;51.338;12.524;2022-07-23T06:25:24;20.52;;;13.65;;
21862;SDS011;11096;51.338;12.524;2022-07-23T06:27:50;18.38;;;13.15;;
21862;SDS011;11096;51.338;12.524;2022-07-23T06:30:15;17.13;;;12.05;;
21862;SDS011;11096;51.338;12.524;2022-07-23T06:32:42;19.38;;;11.52;;
21862;SDS011;11096;51.338;12.524;2022-07-23T06:35:07;18.60;;;11.30;;
21862;SDS011;11096;51.338;12.524;2022-07-23T06:37:33;17.95;;;11.40;;
21862;SDS011;11096;51.338;12.524;2022-07-23T06:39:58;16.90;;;11.32;;
21862;SDS011;11096;51.338;12.524;2022-07-23T06:42:23;18.58;;;11.45;;
21862;SDS011;11096;51.338;12.524;2022-07-23T06:44:49;19.88;;;11.13;;
21862;SDS011;11096;51.338;12.524;2022-07-23T06:47:14;16.25;;;11.23;;
21862;SDS011;11096;51.338;12.524;2022-07-23T06:49:39;14.95;;;10.75;;
21862;SDS011;11096;51.338;12.524;2022-07-23T06:52:06;18.50;;;9.82;;
21862;SDS011;11096;51.338;12.524;2022-07-23T06:54:32;16.42;;;9.60;;
21862;SDS011;11096;51.338;12.524;2022-07-23T06:56:57;13.70;;;9.80;;
21862;SDS011;11096;51.338;12.524;2022-07-23T06:59:22;16.58;;;10.38;;
21862;SDS011;11096;51.338;12.524;2022-07-23T07:01:48;14.43;;;8.85;;
21862;SDS011;11096;51.338;12.524;2022-07-23T07:04:13;10.00;;;8.48;;
21862;SDS011;11096;51.338;12.524;2022-07-23T07:06:38;14.45;;;9.57;;
21862;SDS011;11096;51.338;12.524;2022-07-23T07:09:04;14.13;;;8.27;;
21862;SDS011;11096;51.338;12.524;2022-07-23T07:11:29;13.10;;;8.63;;
21862;SDS011;11096;51.338;12.524;2022-07-23T07:13:54;11.73;;;8.88;;
21862;SDS011;11096;51.338;12.524;2022-07-23T07:16:20;15.98;;;10.00;;
21862;SDS011;11096;51.338;12.524;2022-07-23T07:18:45;17.40;;;8.63;;
21862;SDS011;11096;51.338;12.524;2022-07-23T07:21:11;12.45;;;7.85;;
21862;SDS011;11096;51.338;12.524;2022-07-23T07:23:36;13.88;;;9.30;;
21862;SDS011;11096;51.338;12.524;2022-07-23T07:26:01;14.70;;;9.57;;
21862;SDS011;11096;51.338;12.524;2022-07-23T07:28:27;13.23;;;8.30;;
21862;SDS011;11096;51.338;12.524;2022-07-23T07:30:52;12.77;;;7.82;;
21862;SDS011;11096;51.338;12.524;2022-07-23T07:33:18;12.43;;;8.73;;
21862;SDS011;11096;51.338;12.524;2022-07-23T07:35:44;15.95;;;8.70;;
21862;SDS011;11096;51.338;12.524;2022-07-23T07:38:09;10.73;;;7.80;;
21862;SDS011;11096;51.338;12.524;2022-07-23T07:40:34;10.95;;;7.55;;
21862;SDS011;11096;51.338;12.524;2022-07-23T07:43:00;14.20;;;8.07;;
21862;SDS011;11096;51.338;12.524;2022-07-23T07:45:26;11.00;;;8.10;;
21862;SDS011;11096;51.338;12.524;2022-07-23T07:47:52;15.13;;;8.77;;
21862;SDS011;11096;51.338;12.524;2022-07-23T07:50:18;11.82;;;8.93;;
21862;SDS011;11096;51.338;12.524;2022-07-23T07:52:44;11.93;;;8.93;;
21862;SDS011;11096;51.338;12.524;2022-07-23T07:55:10;14.45;;;9.10;;
21862;SDS011;11096;51.338;12.524;2022-07-23T07:57:36;15.15;;;10.07;;
21862;SDS011;11096;51.338;12.524;2022-07-23T08:00:05;10.32;;;7.90;;
21862;SDS011;11096;51.338;12.524;2022-07-23T08:02:39;12.07;;;7.93;;
21862;SDS011;11096;51.338;12.524;2022-07-23T08:05:06;11.35;;;8.25;;
21862;SDS011;11096;51.338;12.524;2022-07-23T08:07:31;12.10;;;8.85;;
21862;SDS011;11096;51.338;12.524;2022-07-23T08:09:56;12.90;;;9.05;;
21862;SDS011;11096;51.338;12.524;2022-07-23T08:12:22;11.15;;;8.18;;
21862;SDS011;11096;51.338;12.524;2022-07-23T08:14:47;13.18;;;9.30;;
21862;SDS011;11096;51.338;12.524;2022-07-23T08:17:12;10.85;;;8.38;;
21862;SDS011;11096;51.338;12.524;2022-07-23T08:19:38;10.23;;;8.25;;
21862;SDS011;11096;51.338;12.524;2022-07-23T08:22:03;15.20;;;9.90;;
21862;SDS011;11096;51.338;12.524;2022-07-23T08:24:28;11.05;;;8.20;;
21862;SDS011;11096;51.338;12.524;2022-07-23T08:26:54;10.07;;;8.75;;
21862;SDS011;11096;51.338;12.524;2022-07-23T08:29:19;12.75;;;8.65;;
21862;SDS011;11096;51.338;12.524;2022-07-23T08:31:45;11.60;;;8.07;;
21862;SDS011;11096;51.338;12.524;2022-07-23T08:34:10;15.00;;;9.38;;
21862;SDS011;11096;51.338;12.524;2022-07-23T08:36:35;10.15;;;8.38;;
21862;SDS011;11096;51.338;12.524;2022-07-23T08:39:01;12.00;;;8.73;;
21862;SDS011;11096;51.338;12.524;2022-07-23T08:41:28;11.52;;;8.38;;
21862;SDS011;11096;51.338;12.524;2022-07-23T08:43:54;12.88;;;9.63;;
21862;SDS011;11096;51.338;12.524;2022-07-23T08:46:19;15.77;;;9.65;;
21862;SDS011;11096;51.338;12.524;2022-07-23T08:48:47;13.27;;;9.57;;
21862;SDS011;11096;51.338;12.524;2022-07-23T08:51:14;14.02;;;9.77;;
21862;SDS011;11096;51.338;12.524;2022-07-23T08:53:39;16.15;;;9.20;;
21862;SDS011;11096;51.338;12.524;2022-07-23T08:56:07;13.25;;;9.85;;
21862;SDS011;11096;51.338;12.524;2022-07-23T08:58:33;14.50;;;9.00;;
21862;SDS011;11096;51.338;12.524;2022-07-23T09:00:59;14.70;;;9.63;;
21862;SDS011;11096;51.338;12.524;2022-07-23T09:03:26;14.73;;;9.15;;
21862;SDS011;11096;51.338;12.524;2022-07-23T09:05:56;11.73;;;9.57;;
21862;SDS011;11096;51.338;12.524;2022-07-23T09:08:23;11.75;;;8.32;;
21862;SDS011;11096;51.338;12.524;2022-07-23T09:10:55;12.65;;;8.65;;
21862;SDS011;11096;51.338;12.524;2022-07-23T09:16:07;10.40;;;7.50;;
21862;SDS011;11096;51.338;12.524;2022-07-23T09:24:03;11.00;;;6.88;;
21862;SDS011;11096;51.338;12.524;2022-07-23T09:26:38;11.88;;;7.45;;
21862;SDS011;11096;51.338;12.524;2022-07-23T09:31:42;11.15;;;8.40;;
21862;SDS011;11096;51.338;12.524;2022-07-23T09:34:15;13.63;;;9.95;;
21862;SDS011;11096;51.338;12.524;2022-07-23T09:36:46;14.75;;;10.07;;
21862;SDS011;11096;51.338;12.524;2022-07-23T09:39:13;13.93;;;11.95;;
21862;SDS011;11096;51.338;12.524;2022-07-23T09:41:41;14.75;;;11.55;;
21862;SDS011;11096;51.338;12.524;2022-07-23T09:44:15;14.57;;;11.98;;
21862;SDS011;11096;51.338;12.524;2022-07-23T09:46:45;14.50;;;11.73;;
21862;SDS011;11096;51.338;12.524;2022-07-23T09:49:13;13.43;;;12.02;;
21862;SDS011;11096;51.338;12.524;2022-07-23T09:51:47;12.88;;;10.30;;
21862;SDS011;11096;51.338;12.524;2022-07-23T09:54:23;11.05;;;9.63;;
21862;SDS011;11096;51.338;12.524;2022-07-23T09:56:52;14.40;;;9.35;;
21862;SDS011;11096;51.338;12.524;2022-07-23T09:59:18;13.85;;;9.80;;
21862;SDS011;11096;51.338;12.524;2022-07-23T10:01:48;14.10;;;9.07;;
21862;SDS011;11096;51.338;12.524;2022-07-23T10:04:15;13.63;;;8.95;;
21862;SDS011;11096;51.338;12.524;2022-07-23T10:06:40;12.75;;;9.18;;
21862;SDS011;11096;51.338;12.524;2022-07-23T10:09:08;11.85;;;9.07;;
21862;SDS011;11096;51.338;12.524;2022-07-23T10:11:37;13.38;;;8.43;;
21862;SDS011;11096;51.338;12.524;2022-07-23T10:14:03;11.32;;;8.82;;
21862;SDS011;11096;51.338;12.524;2022-07-23T10:16:30;11.73;;;8.80;;
21862;SDS011;11096;51.338;12.524;2022-07-23T10:18:56;13.60;;;9.73;;
21862;SDS011;11096;51.338;12.524;2022-07-23T10:21:42;12.40;;;9.10;;
21862;SDS011;11096;51.338;12.524;2022-07-23T10:24:20;13.70;;;8.70;;
21862;SDS011;11096;51.338;12.524;2022-07-23T10:42:48;14.27;;;9.50;;
21862;SDS011;11096;51.338;12.524;2022-07-23T10:47:48;12.68;;;9.35;;
21862;SDS011;11096;51.338;12.524;2022-07-23T10:50:26;17.92;;;10.27;;
21862;SDS011;11096;51.338;12.524;2022-07-23T10:53:08;11.18;;;8.60;;
21862;SDS011;11096;51.338;12.524;2022-07-23T10:58:03;14.05;;;8.95;;
21862;SDS011;11096;51.338;12.524;2022-07-23T11:00:30;14.82;;;9.82;;
21862;SDS011;11096;51.338;12.524;2022-07-23T11:03:04;13.15;;;9.73;;
21862;SDS011;11096;51.338;12.524;2022-07-23T11:05:49;12.05;;;9.18;;
21862;SDS011;11096;51.338;12.524;2022-07-23T11:08:16;14.23;;;9.68;;
21862;SDS011;11096;51.338;12.524;2022-07-23T11:10:51;15.48;;;9.50;;
21862;SDS011;11096;51.338;12.524;2022-07-23T11:32:07;10.68;;;8.63;;
21862;SDS011;11096;51.338;12.524;2022-07-23T11:34:42;14.10;;;9.25;;
21862;SDS011;11096;51.338;12.524;2022-07-23T11:37:12;14.05;;;9.35;;
21862;SDS011;11096;51.338;12.524;2022-07-23T11:39:54;13.85;;;9.52;;
21862;SDS011;11096;51.338;12.524;2022-07-23T11:42:20;14.80;;;10.35;;
21862;SDS011;11096;51.338;12.524;2022-07-23T11:44:46;16.83;;;11.02;;
21862;SDS011;11096;51.338;12.524;2022-07-23T11:47:13;17.67;;;9.95;;
21862;SDS011;11096;51.338;12.524;2022-07-23T11:49:38;13.93;;;11.13;;
21862;SDS011;11096;51.338;12.524;2022-07-23T11:52:05;17.27;;;11.57;;
21862;SDS011;11096;51.338;12.524;2022-07-23T11:54:32;17.60;;;11.80;;
21862;SDS011;11096;51.338;12.524;2022-07-23T11:56:59;18.63;;;10.55;;
21862;SDS011;11096;51.338;12.524;2022-07-23T11:59:26;13.38;;;10.07;;
21862;SDS011;11096;51.338;12.524;2022-07-23T12:01:57;14.60;;;11.13;;
21862;SDS011;11096;51.338;12.524;2022-07-23T12:04:43;18.63;;;12.13;;
21862;SDS011;11096;51.338;12.524;2022-07-23T12:07:32;13.23;;;9.80;;
21862;SDS011;11096;51.338;12.524;2022-07-23T12:10:04;15.98;;;10.75;;
21862;SDS011;11096;51.338;12.524;2022-07-23T12:12:40;12.80;;;11.07;;
21862;SDS011;11096;51.338;12.524;2022-07-23T12:15:07;16.73;;;11.15;;
21862;SDS011;11096;51.338;12.524;2022-07-23T12:17:34;14.85;;;9.35;;
21862;SDS011;11096;51.338;12.524;2022-07-23T12:20:03;11.93;;;9.27;;
21862;SDS011;11096;51.338;12.524;2022-07-23T12:22:35;13.75;;;9.90;;
21862;SDS011;11096;51.338;12.524;2022-07-23T12:25:06;12.32;;;9.65;;
21862;SDS011;11096;51.338;12.524;2022-07-23T12:27:33;15.18;;;10.02;;
21862;SDS011;11096;51.338;12.524;2022-07-23T12:29:59;11.27;;;8.73;;
21862;SDS011;11096;51.338;12.524;2022-07-23T12:32:42;12.52;;;9.18;;
21862;SDS011;11096;51.338;12.524;2022-07-23T12:35:09;14.68;;;9.52;;
21862;SDS011;11096;51.338;12.524;2022-07-23T12:37:35;13.57;;;8.70;;
21862;SDS011;11096;51.338;12.524;2022-07-23T12:42:47;14.60;;;9.27;;
21862;SDS011;11096;51.338;12.524;2022-07-23T12:45:13;13.38;;;8.75;;
21862;SDS011;11096;51.338;12.524;2022-07-23T12:47:59;17.50;;;9.02;;
21862;SDS011;11096;51.338;12.524;2022-07-23T12:55:34;13.73;;;10.10;;
21862;SDS011;11096;51.338;12.524;2022-07-23T12:58:10;12.45;;;7.38;;
21862;SDS011;11096;51.338;12.524;2022-07-23T13:00:56;9.82;;;7.82;;
21862;SDS011;11096;51.338;12.524;2022-07-23T13:03:28;13.20;;;8.38;;
21862;SDS011;11096;51.338;12.524;2022-07-23T13:06:20;13.27;;;8.20;;
21862;SDS011;11096;51.338;12.524;2022-07-23T13:08:45;10.50;;;7.95;;
21862;SDS011;11096;51.338;12.524;2022-07-23T13:11:10;9.43;;;7.90;;
21862;SDS011;11096;51.338;12.524;2022-07-23T13:13:36;10.82;;;7.78;;
21862;SDS011;11096;51.338;12.524;2022-07-23T13:16:01;12.00;;;7.30;;
21862;SDS011;11096;51.338;12.524;2022-07-23T13:18:27;9.90;;;7.80;;
21862;SDS011;11096;51.338;12.524;2022-07-23T13:20:53;10.52;;;7.97;;
21862;SDS011;11096;51.338;12.524;2022-07-23T13:23:20;8.73;;;7.57;;
21862;SDS011;11096;51.338;12.524;2022-07-23T13:25:46;9.88;;;8.32;;
21862;SDS011;11096;51.338;12.524;2022-07-23T13:28:13;8.98;;;7.97;;
21862;SDS011;11096;51.338;12.524;2022-07-23T13:30:40;9.75;;;6.18;;
21862;SDS011;11096;51.338;12.524;2022-07-23T13:33:06;7.32;;;6.35;;
21862;SDS011;11096;51.338;12.524;2022-07-23T13:35:33;8.43;;;5.75;;
21862;SDS011;11096;51.338;12.524;2022-07-23T13:38:00;9.18;;;7.50;;
21862;SDS011;11096;51.338;12.524;2022-07-23T13:40:26;10.48;;;6.45;;
21862;SDS011;11096;51.338;12.524;2022-07-23T13:42:51;8.10;;;5.35;;
21862;SDS011;11096;51.338;12.524;2022-07-23T13:45:16;9.68;;;5.78;;
21862;SDS011;11096;51.338;12.524;2022-07-23T13:47:42;10.68;;;6.10;;
21862;SDS011;11096;51.338;12.524;2022-07-23T13:50:07;10.65;;;7.00;;
21862;SDS011;11096;51.338;12.524;2022-07-23T13:52:33;7.28;;;5.30;;
21862;SDS011;11096;51.338;12.524;2022-07-23T13:55:00;6.22;;;5.32;;
21862;SDS011;11096;51.338;12.524;2022-07-23T13:57:27;9.60;;;5.45;;
21862;SDS011;11096;51.338;12.524;2022-07-23T13:59:52;6.47;;;5.07;;
21862;SDS011;11096;51.338;12.524;2022-07-23T14:02:17;8.43;;;6.68;;
21862;SDS011;11096;51.338;12.524;2022-07-23T14:04:43;9.45;;;6.85;;
21862;SDS011;11096;51.338;12.524;2022-07-23T14:07:09;12.57;;;5.85;;
21862;SDS011;11096;51.338;12.524;2022-07-23T14:09:34;6.95;;;5.65;;
21862;SDS011;11096;51.338;12.524;2022-07-23T14:12:00;7.45;;;5.80;;
21862;SDS011;11096;51.338;12.524;2022-07-23T14:14:25;7.68;;;5.43;;
21862;SDS011;11096;51.338;12.524;2022-07-23T14:16:51;7.25;;;5.78;;
21862;SDS011;11096;51.338;12.524;2022-07-23T14:19:16;10.27;;;5.35;;
21862;SDS011;11096;51.338;12.524;2022-07-23T14:21:42;7.63;;;6.15;;
21862;SDS011;11096;51.338;12.524;2022-07-23T14:24:08;8.93;;;7.65;;
21862;SDS011;11096;51.338;12.524;2022-07-23T14:26:33;9.07;;;5.65;;
21862;SDS011;11096;51.338;12.524;2022-07-23T14:28:58;10.43;;;8.27;;
21862;SDS011;11096;51.338;12.524;2022-07-23T14:31:24;7.85;;;6.93;;
21862;SDS011;11096;51.338;12.524;2022-07-23T14:33:49;9.90;;;8.45;;
21862;SDS011;11096;51.338;12.524;2022-07-23T14:36:15;8.70;;;7.63;;
21862;SDS011;11096;51.338;12.524;2022-07-23T14:38:41;10.05;;;8.93;;
21862;SDS011;11096;51.338;12.524;2022-07-23T14:41:06;10.45;;;8.40;;
21862;SDS011;11096;51.338;12.524;2022-07-23T14:43:33;9.30;;;8.02;;
21862;SDS011;11096;51.338;12.524;2022-07-23T14:45:59;11.40;;;9.52;;
21862;SDS011;11096;51.338;12.524;2022-07-23T14:48:24;11.98;;;8.77;;
21862;SDS011;11096;51.338;12.524;2022-07-23T14:50:50;11.13;;;8.93;;
21862;SDS011;11096;51.338;12.524;2022-07-23T14:53:15;14.02;;;10.48;;
21862;SDS011;11096;51.338;12.524;2022-07-23T14:55:41;13.82;;;9.50;;
21862;SDS011;11096;51.338;12.524;2022-07-23T14:58:06;13.90;;;9.43;;
21862;SDS011;11096;51.338;12.524;2022-07-23T15:00:31;11.18;;;8.93;;
21862;SDS011;11096;51.338;12.524;2022-07-23T15:02:57;10.30;;;8.85;;
21862;SDS011;11096;51.338;12.524;2022-07-23T15:05:22;12.05;;;9.48;;
21862;SDS011;11096;51.338;12.524;2022-07-23T15:07:48;11.40;;;8.90;;
21862;SDS011;11096;51.338;12.524;2022-07-23T15:10:14;10.77;;;9.50;;
21862;SDS011;11096;51.338;12.524;2022-07-23T15:12:39;11.40;;;9.98;;
21862;SDS011;11096;51.338;12.524;2022-07-23T15:15:05;15.35;;;9.32;;
21862;SDS011;11096;51.338;12.524;2022-07-23T15:17:31;11.02;;;9.30;;